sensor_id;sensor_type;location;lat;lon;timestamp;temperature;humidity
40589;DHT22;26297;49.450;6.640;2022-08-25T00:01:59;21.20;99.60
40589;DHT22;26297;49.450;6.640;2022-08-25T00:05:03;21.20;99.90
40589;DHT22;26297;49.450;6.640;2022-08-25T00:08:12;21.20;98.70
40589;DHT22;26297;49.450;6.640;2022-08-25T00:11:21;21.10;98.40
40589;DHT22;26297;49.450;6.640;2022-08-25T00:14:31;21.10;99.00
40589;DHT22;26297;49.450;6.640;2022-08-25T00:17:36;21.10;99.60
40589;DHT22;26297;49.450;6.640;2022-08-25T00:20:40;21.50;99.90
40589;DHT22;26297;49.450;6.640;2022-08-25T00:23:48;21.10;99.90
40589;DHT22;26297;49.450;6.640;2022-08-25T00:26:56;21.00;99.90
40589;DHT22;26297;49.450;6.640;2022-08-25T00:30:03;21.00;98.60
40589;DHT22;26297;49.450;6.640;2022-08-25T00:33:14;21.00;99.90
40589;DHT22;26297;49.450;6.640;2022-08-25T00:36:28;21.00;99.90
40589;DHT22;26297;49.450;6.640;2022-08-25T00:39:32;20.90;99.80
40589;DHT22;26297;49.450;6.640;2022-08-25T00:42:40;21.00;99.90
40589;DHT22;26297;49.450;6.640;2022-08-25T00:45:46;20.90;99.90
40589;DHT22;26297;49.450;6.640;2022-08-25T00:48:58;20.90;99.90
40589;DHT22;26297;49.450;6.640;2022-08-25T00:52:23;20.90;99.90
40589;DHT22;26297;49.450;6.640;2022-08-25T00:55:39;20.80;98.50
40589;DHT22;26297;49.450;6.640;2022-08-25T00:58:48;20.90;99.90
40589;DHT22;26297;49.450;6.640;2022-08-25T01:01:53;20.80;99.90
40589;DHT22;26297;49.450;6.640;2022-08-25T01:04:59;20.80;99.90
40589;DHT22;26297;49.450;6.640;2022-08-25T01:08:03;20.70;99.90
40589;DHT22;26297;49.450;6.640;2022-08-25T01:11:14;20.70;99.90
40589;DHT22;26297;49.450;6.640;2022-08-25T01:14:19;20.70;99.90
40589;DHT22;26297;49.450;6.640;2022-08-25T01:17:24;20.80;99.90
40589;DHT22;26297;49.450;6.640;2022-08-25T01:20:30;20.70;99.90
40589;DHT22;26297;49.450;6.640;2022-08-25T01:23:34;20.70;99.90
40589;DHT22;26297;49.450;6.640;2022-08-25T01:26:38;20.70;99.90
40589;DHT22;26297;49.450;6.640;2022-08-25T01:29:41;20.60;99.90
40589;DHT22;26297;49.450;6.640;2022-08-25T01:32:44;20.60;99.90
40589;DHT22;26297;49.450;6.640;2022-08-25T01:35:48;20.60;99.90
40589;DHT22;26297;49.450;6.640;2022-08-25T01:38:52;20.60;99.90
40589;DHT22;26297;49.450;6.640;2022-08-25T01:45:04;20.60;99.90
40589;DHT22;26297;49.450;6.640;2022-08-25T01:48:08;20.60;99.90
40589;DHT22;26297;49.450;6.640;2022-08-25T01:51:19;20.60;99.90
40589;DHT22;26297;49.450;6.640;2022-08-25T01:54:23;20.50;99.90
40589;DHT22;26297;49.450;6.640;2022-08-25T01:57:28;20.50;99.90
40589;DHT22;26297;49.450;6.640;2022-08-25T02:00:32;20.50;99.90
40589;DHT22;26297;49.450;6.640;2022-08-25T02:03:39;20.50;99.90
40589;DHT22;26297;49.450;6.640;2022-08-25T02:06:42;20.50;99.90
40589;DHT22;26297;49.450;6.640;2022-08-25T02:09:45;20.50;99.90
40589;DHT22;26297;49.450;6.640;2022-08-25T02:12:49;20.50;99.90
40589;DHT22;26297;49.450;6.640;2022-08-25T02:15:55;20.50;99.90
40589;DHT22;26297;49.450;6.640;2022-08-25T02:18:59;20.40;99.90
40589;DHT22;26297;49.450;6.640;2022-08-25T02:22:03;20.40;99.90
40589;DHT22;26297;49.450;6.640;2022-08-25T02:25:07;20.40;99.90
40589;DHT22;26297;49.450;6.640;2022-08-25T02:28:10;20.40;99.90
40589;DHT22;26297;49.450;6.640;2022-08-25T02:31:14;20.40;99.90
40589;DHT22;26297;49.450;6.640;2022-08-25T02:34:17;20.40;99.90
40589;DHT22;26297;49.450;6.640;2022-08-25T02:37:20;20.40;99.90
40589;DHT22;26297;49.450;6.640;2022-08-25T02:40:23;20.30;99.90
40589;DHT22;26297;49.450;6.640;2022-08-25T02:43:27;20.30;99.90
40589;DHT22;26297;49.450;6.640;2022-08-25T02:46:31;20.30;99.90
40589;DHT22;26297;49.450;6.640;2022-08-25T02:49:34;20.20;99.90
40589;DHT22;26297;49.450;6.640;2022-08-25T02:52:38;20.20;99.90
40589;DHT22;26297;49.450;6.640;2022-08-25T02:55:42;20.20;99.90
40589;DHT22;26297;49.450;6.640;2022-08-25T02:58:45;20.20;99.90
40589;DHT22;26297;49.450;6.640;2022-08-25T03:01:49;20.20;99.90
40589;DHT22;26297;49.450;6.640;2022-08-25T03:04:53;20.10;99.90
40589;DHT22;26297;49.450;6.640;2022-08-25T03:07:56;20.10;99.90
40589;DHT22;26297;49.450;6.640;2022-08-25T03:10:59;20.10;99.90
40589;DHT22;26297;49.450;6.640;2022-08-25T03:14:07;20.10;99.90
40589;DHT22;26297;49.450;6.640;2022-08-25T03:17:11;20.10;99.90
40589;DHT22;26297;49.450;6.640;2022-08-25T03:20:15;20.00;99.90
40589;DHT22;26297;49.450;6.640;2022-08-25T03:23:18;20.00;99.90
40589;DHT22;26297;49.450;6.640;2022-08-25T03:26:22;20.00;99.90
40589;DHT22;26297;49.450;6.640;2022-08-25T03:29:44;20.00;99.90
40589;DHT22;26297;49.450;6.640;2022-08-25T03:32:48;20.00;99.90
40589;DHT22;26297;49.450;6.640;2022-08-25T03:35:51;20.00;99.90
40589;DHT22;26297;49.450;6.640;2022-08-25T03:38:54;20.00;99.90
40589;DHT22;26297;49.450;6.640;2022-08-25T03:41:57;20.00;99.90
40589;DHT22;26297;49.450;6.640;2022-08-25T03:45:03;19.90;99.90
40589;DHT22;26297;49.450;6.640;2022-08-25T03:48:06;19.90;99.90
40589;DHT22;26297;49.450;6.640;2022-08-25T03:51:10;19.90;99.90
40589;DHT22;26297;49.450;6.640;2022-08-25T03:54:19;19.90;99.90
40589;DHT22;26297;49.450;6.640;2022-08-25T03:57:22;19.90;99.90
40589;DHT22;26297;49.450;6.640;2022-08-25T04:00:25;20.00;99.90
40589;DHT22;26297;49.450;6.640;2022-08-25T04:03:28;19.90;99.90
40589;DHT22;26297;49.450;6.640;2022-08-25T04:06:31;19.90;99.90
40589;DHT22;26297;49.450;6.640;2022-08-25T04:09:35;19.90;99.90
40589;DHT22;26297;49.450;6.640;2022-08-25T04:12:38;19.80;99.90
40589;DHT22;26297;49.450;6.640;2022-08-25T04:15:42;19.80;99.90
40589;DHT22;26297;49.450;6.640;2022-08-25T04:18:46;19.80;99.90
40589;DHT22;26297;49.450;6.640;2022-08-25T04:21:51;19.80;99.90
40589;DHT22;26297;49.450;6.640;2022-08-25T04:24:54;19.70;99.90
40589;DHT22;26297;49.450;6.640;2022-08-25T04:27:57;19.80;99.90
40589;DHT22;26297;49.450;6.640;2022-08-25T04:31:00;19.70;99.90
40589;DHT22;26297;49.450;6.640;2022-08-25T04:34:04;19.70;99.90
40589;DHT22;26297;49.450;6.640;2022-08-25T04:37:09;19.70;99.90
40589;DHT22;26297;49.450;6.640;2022-08-25T04:40:12;19.70;99.90
40589;DHT22;26297;49.450;6.640;2022-08-25T04:43:15;19.70;99.90
40589;DHT22;26297;49.450;6.640;2022-08-25T04:46:21;19.70;99.90
40589;DHT22;26297;49.450;6.640;2022-08-25T04:49:24;19.70;99.90
40589;DHT22;26297;49.450;6.640;2022-08-25T04:52:27;19.70;99.90
40589;DHT22;26297;49.450;6.640;2022-08-25T04:55:30;19.60;99.90
40589;DHT22;26297;49.450;6.640;2022-08-25T04:58:34;19.60;99.90
40589;DHT22;26297;49.450;6.640;2022-08-25T05:01:38;19.60;99.90
40589;DHT22;26297;49.450;6.640;2022-08-25T05:04:42;19.70;99.90
40589;DHT22;26297;49.450;6.640;2022-08-25T05:07:44;19.60;99.90
40589;DHT22;26297;49.450;6.640;2022-08-25T05:10:49;19.60;99.90
40589;DHT22;26297;49.450;6.640;2022-08-25T05:13:54;19.60;99.90
40589;DHT22;26297;49.450;6.640;2022-08-25T05:16:58;19.60;99.90
40589;DHT22;26297;49.450;6.640;2022-08-25T05:20:01;19.50;99.90
40589;DHT22;26297;49.450;6.640;2022-08-25T05:23:04;19.50;99.90
40589;DHT22;26297;49.450;6.640;2022-08-25T05:26:10;19.50;99.90
40589;DHT22;26297;49.450;6.640;2022-08-25T05:29:13;19.60;99.90
40589;DHT22;26297;49.450;6.640;2022-08-25T05:32:17;19.60;99.90
40589;DHT22;26297;49.450;6.640;2022-08-25T05:35:21;19.60;99.90
40589;DHT22;26297;49.450;6.640;2022-08-25T05:38:24;19.60;99.90
40589;DHT22;26297;49.450;6.640;2022-08-25T05:41:29;19.60;99.90
40589;DHT22;26297;49.450;6.640;2022-08-25T05:44:32;19.60;99.90
40589;DHT22;26297;49.450;6.640;2022-08-25T05:47:35;19.60;99.90
40589;DHT22;26297;49.450;6.640;2022-08-25T05:50:39;19.60;99.90
40589;DHT22;26297;49.450;6.640;2022-08-25T05:53:44;19.60;99.90
40589;DHT22;26297;49.450;6.640;2022-08-25T05:56:48;19.60;99.90
40589;DHT22;26297;49.450;6.640;2022-08-25T05:59:51;19.60;99.90
40589;DHT22;26297;49.450;6.640;2022-08-25T06:02:54;19.60;99.90
40589;DHT22;26297;49.450;6.640;2022-08-25T06:06:05;19.50;99.90
40589;DHT22;26297;49.450;6.640;2022-08-25T06:09:09;19.70;99.90
40589;DHT22;26297;49.450;6.640;2022-08-25T06:12:13;19.70;99.90
40589;DHT22;26297;49.450;6.640;2022-08-25T06:15:20;19.70;99.90
40589;DHT22;26297;49.450;6.640;2022-08-25T06:18:24;19.80;99.90
40589;DHT22;26297;49.450;6.640;2022-08-25T06:21:27;19.80;99.90
40589;DHT22;26297;49.450;6.640;2022-08-25T06:24:33;19.80;99.90
40589;DHT22;26297;49.450;6.640;2022-08-25T06:27:37;18.50;99.90
40589;DHT22;26297;49.450;6.640;2022-08-25T06:30:43;19.90;99.90
40589;DHT22;26297;49.450;6.640;2022-08-25T06:33:49;19.90;99.90
40589;DHT22;26297;49.450;6.640;2022-08-25T06:36:53;19.90;99.90
40589;DHT22;26297;49.450;6.640;2022-08-25T06:39:56;20.00;99.90
40589;DHT22;26297;49.450;6.640;2022-08-25T06:43:03;20.30;99.90
40589;DHT22;26297;49.450;6.640;2022-08-25T06:46:11;20.10;99.90
40589;DHT22;26297;49.450;6.640;2022-08-25T06:49:15;20.20;99.90
40589;DHT22;26297;49.450;6.640;2022-08-25T06:52:19;20.30;99.90
40589;DHT22;26297;49.450;6.640;2022-08-25T06:55:22;20.30;99.90
40589;DHT22;26297;49.450;6.640;2022-08-25T06:58:25;20.40;99.90
40589;DHT22;26297;49.450;6.640;2022-08-25T07:01:29;20.50;99.90
40589;DHT22;26297;49.450;6.640;2022-08-25T07:04:34;20.60;99.90
40589;DHT22;26297;49.450;6.640;2022-08-25T07:07:37;20.70;99.90
40589;DHT22;26297;49.450;6.640;2022-08-25T07:10:40;20.80;99.90
40589;DHT22;26297;49.450;6.640;2022-08-25T07:13:44;20.80;99.90
40589;DHT22;26297;49.450;6.640;2022-08-25T07:16:47;20.90;99.90
40589;DHT22;26297;49.450;6.640;2022-08-25T07:19:51;21.00;99.90
40589;DHT22;26297;49.450;6.640;2022-08-25T07:22:56;21.10;99.90
40589;DHT22;26297;49.450;6.640;2022-08-25T07:26:22;21.10;99.90
40589;DHT22;26297;49.450;6.640;2022-08-25T07:29:27;21.10;99.90
40589;DHT22;26297;49.450;6.640;2022-08-25T07:32:31;21.20;99.90
40589;DHT22;26297;49.450;6.640;2022-08-25T07:35:35;21.30;99.90
40589;DHT22;26297;49.450;6.640;2022-08-25T07:38:39;21.40;99.90
40589;DHT22;26297;49.450;6.640;2022-08-25T07:41:42;21.40;99.90
40589;DHT22;26297;49.450;6.640;2022-08-25T07:44:45;21.50;99.90
40589;DHT22;26297;49.450;6.640;2022-08-25T07:47:49;21.50;99.90
40589;DHT22;26297;49.450;6.640;2022-08-25T07:50:54;21.50;99.90
40589;DHT22;26297;49.450;6.640;2022-08-25T07:53:57;21.60;99.90
40589;DHT22;26297;49.450;6.640;2022-08-25T07:57:00;21.60;99.90
40589;DHT22;26297;49.450;6.640;2022-08-25T08:00:03;21.70;99.90
40589;DHT22;26297;49.450;6.640;2022-08-25T08:03:09;21.70;99.90
40589;DHT22;26297;49.450;6.640;2022-08-25T08:06:14;21.80;99.90
40589;DHT22;26297;49.450;6.640;2022-08-25T08:09:18;21.80;99.90
40589;DHT22;26297;49.450;6.640;2022-08-25T08:12:21;21.90;99.90
40589;DHT22;26297;49.450;6.640;2022-08-25T08:15:25;21.90;99.90
40589;DHT22;26297;49.450;6.640;2022-08-25T08:18:28;21.90;99.90
40589;DHT22;26297;49.450;6.640;2022-08-25T08:21:34;21.90;99.90
40589;DHT22;26297;49.450;6.640;2022-08-25T08:24:37;22.00;99.90
40589;DHT22;26297;49.450;6.640;2022-08-25T08:27:41;22.00;99.90
40589;DHT22;26297;49.450;6.640;2022-08-25T08:30:45;22.00;99.90
40589;DHT22;26297;49.450;6.640;2022-08-25T08:33:49;22.00;99.90
40589;DHT22;26297;49.450;6.640;2022-08-25T08:36:52;22.00;99.90
40589;DHT22;26297;49.450;6.640;2022-08-25T08:39:55;22.10;99.90
40589;DHT22;26297;49.450;6.640;2022-08-25T08:43:10;22.10;99.90
40589;DHT22;26297;49.450;6.640;2022-08-25T08:46:21;22.10;99.90
40589;DHT22;26297;49.450;6.640;2022-08-25T08:55:59;22.20;99.90
40589;DHT22;26297;49.450;6.640;2022-08-25T08:59:10;22.20;99.90
40589;DHT22;26297;49.450;6.640;2022-08-25T09:02:24;22.20;99.90
40589;DHT22;26297;49.450;6.640;2022-08-25T09:05:29;22.30;99.90
40589;DHT22;26297;49.450;6.640;2022-08-25T09:08:33;22.30;99.90
40589;DHT22;26297;49.450;6.640;2022-08-25T09:11:59;22.30;99.90
40589;DHT22;26297;49.450;6.640;2022-08-25T09:15:43;22.30;99.90
40589;DHT22;26297;49.450;6.640;2022-08-25T09:19:30;22.30;99.90
40589;DHT22;26297;49.450;6.640;2022-08-25T09:29:28;22.30;99.90
40589;DHT22;26297;49.450;6.640;2022-08-25T09:32:41;22.20;99.90
40589;DHT22;26297;49.450;6.640;2022-08-25T09:35:45;22.20;99.90
40589;DHT22;26297;49.450;6.640;2022-08-25T09:38:49;22.30;99.90
40589;DHT22;26297;49.450;6.640;2022-08-25T09:41:57;22.30;99.90
40589;DHT22;26297;49.450;6.640;2022-08-25T09:45:02;22.30;99.90
40589;DHT22;26297;49.450;6.640;2022-08-25T09:48:33;22.30;99.90
40589;DHT22;26297;49.450;6.640;2022-08-25T09:51:44;22.30;99.90
40589;DHT22;26297;49.450;6.640;2022-08-25T09:54:49;22.40;99.90
40589;DHT22;26297;49.450;6.640;2022-08-25T09:57:54;22.40;99.90
40589;DHT22;26297;49.450;6.640;2022-08-25T10:01:06;22.40;99.90
40589;DHT22;26297;49.450;6.640;2022-08-25T10:04:13;22.40;99.90
40589;DHT22;26297;49.450;6.640;2022-08-25T10:07:29;22.40;99.90
40589;DHT22;26297;49.450;6.640;2022-08-25T10:10:43;22.50;99.90
40589;DHT22;26297;49.450;6.640;2022-08-25T10:13:49;22.50;99.90
40589;DHT22;26297;49.450;6.640;2022-08-25T10:17:18;22.60;99.90
40589;DHT22;26297;49.450;6.640;2022-08-25T10:20:28;22.50;99.90
40589;DHT22;26297;49.450;6.640;2022-08-25T10:23:33;22.50;99.90
40589;DHT22;26297;49.450;6.640;2022-08-25T10:27:00;22.50;99.90
40589;DHT22;26297;49.450;6.640;2022-08-25T10:30:19;22.50;99.90
40589;DHT22;26297;49.450;6.640;2022-08-25T10:33:58;22.50;99.90
40589;DHT22;26297;49.450;6.640;2022-08-25T10:40:33;22.50;99.90
40589;DHT22;26297;49.450;6.640;2022-08-25T10:47:43;22.50;99.90
40589;DHT22;26297;49.450;6.640;2022-08-25T11:01:02;22.50;99.90
40589;DHT22;26297;49.450;6.640;2022-08-25T11:04:14;22.50;99.90
40589;DHT22;26297;49.450;6.640;2022-08-25T11:08:06;22.50;99.90
40589;DHT22;26297;49.450;6.640;2022-08-25T11:14:32;22.50;99.90
40589;DHT22;26297;49.450;6.640;2022-08-25T11:17:58;22.50;97.20
40589;DHT22;26297;49.450;6.640;2022-08-25T11:21:09;22.70;98.00
40589;DHT22;26297;49.450;6.640;2022-08-25T11:24:20;22.70;99.60
40589;DHT22;26297;49.450;6.640;2022-08-25T11:27:36;22.60;99.90
40589;DHT22;26297;49.450;6.640;2022-08-25T11:30:40;22.60;99.20
40589;DHT22;26297;49.450;6.640;2022-08-25T11:33:44;22.60;99.90
40589;DHT22;26297;49.450;6.640;2022-08-25T11:37:04;22.60;99.40
40589;DHT22;26297;49.450;6.640;2022-08-25T11:40:25;22.60;99.60
40589;DHT22;26297;49.450;6.640;2022-08-25T11:50:08;22.60;98.50
40589;DHT22;26297;49.450;6.640;2022-08-25T11:53:33;22.60;99.90
40589;DHT22;26297;49.450;6.640;2022-08-25T11:56:38;22.70;99.40
40589;DHT22;26297;49.450;6.640;2022-08-25T12:02:53;22.80;99.90
40589;DHT22;26297;49.450;6.640;2022-08-25T12:09:21;22.80;97.10
40589;DHT22;26297;49.450;6.640;2022-08-25T12:13:01;22.90;96.30
40589;DHT22;26297;49.450;6.640;2022-08-25T12:16:05;22.90;96.30
40589;DHT22;26297;49.450;6.640;2022-08-25T12:22:38;22.80;96.90
40589;DHT22;26297;49.450;6.640;2022-08-25T12:25:45;22.90;95.50
40589;DHT22;26297;49.450;6.640;2022-08-25T12:35:59;23.00;95.50
40589;DHT22;26297;49.450;6.640;2022-08-25T12:39:17;22.90;96.50
40589;DHT22;26297;49.450;6.640;2022-08-25T12:52:11;23.00;95.50
40589;DHT22;26297;49.450;6.640;2022-08-25T12:55:15;23.00;96.20
40589;DHT22;26297;49.450;6.640;2022-08-25T12:58:22;22.90;96.20
40589;DHT22;26297;49.450;6.640;2022-08-25T13:12:16;22.80;96.30
40589;DHT22;26297;49.450;6.640;2022-08-25T13:15:31;22.80;97.00
40589;DHT22;26297;49.450;6.640;2022-08-25T13:18:37;22.80;97.10
40589;DHT22;26297;49.450;6.640;2022-08-25T13:21:42;22.70;99.10
40589;DHT22;26297;49.450;6.640;2022-08-25T13:24:46;22.60;98.50
40589;DHT22;26297;49.450;6.640;2022-08-25T13:27:55;22.60;97.30
40589;DHT22;26297;49.450;6.640;2022-08-25T13:31:03;22.70;97.80
40589;DHT22;26297;49.450;6.640;2022-08-25T13:34:16;22.60;99.10
40589;DHT22;26297;49.450;6.640;2022-08-25T13:37:23;21.70;99.90
40589;DHT22;26297;49.450;6.640;2022-08-25T13:40:32;22.90;99.90
40589;DHT22;26297;49.450;6.640;2022-08-25T13:43:38;23.20;97.70
40589;DHT22;26297;49.450;6.640;2022-08-25T13:46:41;23.50;95.80
40589;DHT22;26297;49.450;6.640;2022-08-25T13:49:46;23.60;97.80
40589;DHT22;26297;49.450;6.640;2022-08-25T13:53:03;23.60;97.00
40589;DHT22;26297;49.450;6.640;2022-08-25T13:56:07;23.60;98.90
40589;DHT22;26297;49.450;6.640;2022-08-25T13:59:26;23.60;95.20
40589;DHT22;26297;49.450;6.640;2022-08-25T14:02:47;23.70;98.20
40589;DHT22;26297;49.450;6.640;2022-08-25T14:06:06;23.60;94.60
40589;DHT22;26297;49.450;6.640;2022-08-25T14:09:16;23.50;96.10
40589;DHT22;26297;49.450;6.640;2022-08-25T14:15:31;23.40;95.30
40589;DHT22;26297;49.450;6.640;2022-08-25T14:18:36;23.30;95.80
40589;DHT22;26297;49.450;6.640;2022-08-25T14:21:42;23.20;97.50
40589;DHT22;26297;49.450;6.640;2022-08-25T14:24:51;23.10;97.20
40589;DHT22;26297;49.450;6.640;2022-08-25T14:28:01;23.20;94.00
40589;DHT22;26297;49.450;6.640;2022-08-25T14:31:13;23.30;96.80
40589;DHT22;26297;49.450;6.640;2022-08-25T14:34:21;23.30;96.60
40589;DHT22;26297;49.450;6.640;2022-08-25T14:37:24;23.40;96.70
40589;DHT22;26297;49.450;6.640;2022-08-25T14:40:28;23.40;95.10
40589;DHT22;26297;49.450;6.640;2022-08-25T14:43:32;23.30;98.60
40589;DHT22;26297;49.450;6.640;2022-08-25T14:46:58;23.30;94.70
40589;DHT22;26297;49.450;6.640;2022-08-25T14:50:01;23.40;97.80
40589;DHT22;26297;49.450;6.640;2022-08-25T14:53:04;23.60;95.50
40589;DHT22;26297;49.450;6.640;2022-08-25T14:56:08;23.70;97.60
40589;DHT22;26297;49.450;6.640;2022-08-25T14:59:12;23.60;95.90
40589;DHT22;26297;49.450;6.640;2022-08-25T15:02:16;23.60;96.20
40589;DHT22;26297;49.450;6.640;2022-08-25T15:05:25;23.70;95.60
40589;DHT22;26297;49.450;6.640;2022-08-25T15:08:32;23.90;96.80
40589;DHT22;26297;49.450;6.640;2022-08-25T15:11:55;23.70;95.60
40589;DHT22;26297;49.450;6.640;2022-08-25T15:14:59;23.60;95.90
40589;DHT22;26297;49.450;6.640;2022-08-25T15:18:06;23.40;95.60
40589;DHT22;26297;49.450;6.640;2022-08-25T15:21:10;23.40;99.90
40589;DHT22;26297;49.450;6.640;2022-08-25T15:24:16;23.30;96.60
40589;DHT22;26297;49.450;6.640;2022-08-25T15:27:20;23.20;96.60
40589;DHT22;26297;49.450;6.640;2022-08-25T15:30:24;23.20;97.70
40589;DHT22;26297;49.450;6.640;2022-08-25T15:33:28;23.10;97.70
40589;DHT22;26297;49.450;6.640;2022-08-25T15:36:32;23.10;99.60
40589;DHT22;26297;49.450;6.640;2022-08-25T15:39:36;23.00;99.10
40589;DHT22;26297;49.450;6.640;2022-08-25T15:42:40;23.10;99.20
40589;DHT22;26297;49.450;6.640;2022-08-25T15:45:44;23.10;99.90
40589;DHT22;26297;49.450;6.640;2022-08-25T15:48:47;23.10;99.90
40589;DHT22;26297;49.450;6.640;2022-08-25T15:51:52;23.10;99.70
40589;DHT22;26297;49.450;6.640;2022-08-25T15:54:59;23.00;99.60
40589;DHT22;26297;49.450;6.640;2022-08-25T15:58:02;23.00;99.90
40589;DHT22;26297;49.450;6.640;2022-08-25T16:01:04;23.10;99.30
40589;DHT22;26297;49.450;6.640;2022-08-25T16:04:08;23.00;99.90
40589;DHT22;26297;49.450;6.640;2022-08-25T16:07:12;23.00;99.90
40589;DHT22;26297;49.450;6.640;2022-08-25T16:10:15;23.00;99.50
40589;DHT22;26297;49.450;6.640;2022-08-25T16:13:18;23.00;99.90
40589;DHT22;26297;49.450;6.640;2022-08-25T16:16:23;22.90;99.60
40589;DHT22;26297;49.450;6.640;2022-08-25T16:19:28;22.90;99.90
40589;DHT22;26297;49.450;6.640;2022-08-25T16:22:31;23.00;99.90
40589;DHT22;26297;49.450;6.640;2022-08-25T16:25:42;23.00;99.90
40589;DHT22;26297;49.450;6.640;2022-08-25T16:28:45;23.00;99.90
40589;DHT22;26297;49.450;6.640;2022-08-25T16:31:48;22.90;99.90
40589;DHT22;26297;49.450;6.640;2022-08-25T16:34:52;22.90;99.90
40589;DHT22;26297;49.450;6.640;2022-08-25T16:37:55;22.90;99.90
40589;DHT22;26297;49.450;6.640;2022-08-25T16:40:58;22.90;99.90
40589;DHT22;26297;49.450;6.640;2022-08-25T16:44:04;22.90;99.70
40589;DHT22;26297;49.450;6.640;2022-08-25T16:47:11;22.90;99.90
40589;DHT22;26297;49.450;6.640;2022-08-25T16:50:16;22.80;99.90
40589;DHT22;26297;49.450;6.640;2022-08-25T16:53:19;22.80;99.90
40589;DHT22;26297;49.450;6.640;2022-08-25T16:56:44;22.80;99.90
40589;DHT22;26297;49.450;6.640;2022-08-25T16:59:47;22.80;99.90
40589;DHT22;26297;49.450;6.640;2022-08-25T17:02:59;22.70;99.90
40589;DHT22;26297;49.450;6.640;2022-08-25T17:06:02;22.70;99.90
40589;DHT22;26297;49.450;6.640;2022-08-25T17:09:07;22.70;99.90
40589;DHT22;26297;49.450;6.640;2022-08-25T17:12:11;22.70;99.90
40589;DHT22;26297;49.450;6.640;2022-08-25T17:15:14;22.70;99.90
40589;DHT22;26297;49.450;6.640;2022-08-25T17:18:23;22.70;99.90
40589;DHT22;26297;49.450;6.640;2022-08-25T17:21:30;21.80;99.90
40589;DHT22;26297;49.450;6.640;2022-08-25T17:24:34;22.70;99.90
40589;DHT22;26297;49.450;6.640;2022-08-25T17:27:37;22.70;99.90
40589;DHT22;26297;49.450;6.640;2022-08-25T17:30:41;22.70;99.90
40589;DHT22;26297;49.450;6.640;2022-08-25T17:33:45;22.70;99.90
40589;DHT22;26297;49.450;6.640;2022-08-25T17:36:49;22.70;99.90
40589;DHT22;26297;49.450;6.640;2022-08-25T17:39:52;22.60;99.90
40589;DHT22;26297;49.450;6.640;2022-08-25T17:42:56;22.60;99.90
40589;DHT22;26297;49.450;6.640;2022-08-25T17:45:59;22.50;99.90
40589;DHT22;26297;49.450;6.640;2022-08-25T17:49:03;22.60;99.90
40589;DHT22;26297;49.450;6.640;2022-08-25T17:52:06;22.60;99.90
40589;DHT22;26297;49.450;6.640;2022-08-25T17:55:09;22.50;99.90
40589;DHT22;26297;49.450;6.640;2022-08-25T17:58:14;22.60;99.90
40589;DHT22;26297;49.450;6.640;2022-08-25T18:01:30;22.50;99.90
40589;DHT22;26297;49.450;6.640;2022-08-25T18:04:35;22.50;99.90
40589;DHT22;26297;49.450;6.640;2022-08-25T18:07:38;22.50;99.90
40589;DHT22;26297;49.450;6.640;2022-08-25T18:10:41;22.50;99.90
40589;DHT22;26297;49.450;6.640;2022-08-25T18:13:46;22.60;99.90
40589;DHT22;26297;49.450;6.640;2022-08-25T18:16:49;22.50;99.90
40589;DHT22;26297;49.450;6.640;2022-08-25T18:19:55;22.50;99.90
40589;DHT22;26297;49.450;6.640;2022-08-25T18:23:03;22.60;99.90
40589;DHT22;26297;49.450;6.640;2022-08-25T18:26:08;22.60;99.90
40589;DHT22;26297;49.450;6.640;2022-08-25T18:29:12;22.60;99.90
40589;DHT22;26297;49.450;6.640;2022-08-25T18:32:16;22.60;99.90
40589;DHT22;26297;49.450;6.640;2022-08-25T18:35:20;22.60;99.90
40589;DHT22;26297;49.450;6.640;2022-08-25T18:38:24;22.60;99.90
40589;DHT22;26297;49.450;6.640;2022-08-25T18:41:46;22.70;99.90
40589;DHT22;26297;49.450;6.640;2022-08-25T18:44:49;22.70;99.90
40589;DHT22;26297;49.450;6.640;2022-08-25T18:47:53;22.70;99.90
40589;DHT22;26297;49.450;6.640;2022-08-25T18:51:00;22.70;99.90
40589;DHT22;26297;49.450;6.640;2022-08-25T18:54:04;22.70;99.90
40589;DHT22;26297;49.450;6.640;2022-08-25T18:57:07;22.00;99.90
40589;DHT22;26297;49.450;6.640;2022-08-25T19:00:12;22.70;99.90
40589;DHT22;26297;49.450;6.640;2022-08-25T19:03:19;22.60;99.90
40589;DHT22;26297;49.450;6.640;2022-08-25T19:06:24;22.70;99.90
40589;DHT22;26297;49.450;6.640;2022-08-25T19:09:28;22.70;99.90
40589;DHT22;26297;49.450;6.640;2022-08-25T19:12:32;22.70;99.90
40589;DHT22;26297;49.450;6.640;2022-08-25T19:15:37;22.70;99.90
40589;DHT22;26297;49.450;6.640;2022-08-25T19:18:41;22.70;99.90
40589;DHT22;26297;49.450;6.640;2022-08-25T19:21:44;22.70;99.90
40589;DHT22;26297;49.450;6.640;2022-08-25T19:24:48;22.80;99.90
40589;DHT22;26297;49.450;6.640;2022-08-25T19:27:52;22.80;99.90
40589;DHT22;26297;49.450;6.640;2022-08-25T19:30:55;22.80;99.90
40589;DHT22;26297;49.450;6.640;2022-08-25T19:33:59;22.80;99.90
40589;DHT22;26297;49.450;6.640;2022-08-25T19:37:06;22.80;99.90
40589;DHT22;26297;49.450;6.640;2022-08-25T19:40:10;22.80;99.90
40589;DHT22;26297;49.450;6.640;2022-08-25T19:43:17;22.70;99.90
40589;DHT22;26297;49.450;6.640;2022-08-25T19:46:44;22.80;99.90
40589;DHT22;26297;49.450;6.640;2022-08-25T19:49:50;22.80;99.90
40589;DHT22;26297;49.450;6.640;2022-08-25T19:52:53;22.80;99.90
40589;DHT22;26297;49.450;6.640;2022-08-25T19:55:57;22.80;99.90
40589;DHT22;26297;49.450;6.640;2022-08-25T19:59:05;22.80;99.90
40589;DHT22;26297;49.450;6.640;2022-08-25T20:02:19;22.80;99.90
40589;DHT22;26297;49.450;6.640;2022-08-25T20:05:27;22.60;99.90
40589;DHT22;26297;49.450;6.640;2022-08-25T20:08:30;21.80;99.90
40589;DHT22;26297;49.450;6.640;2022-08-25T20:11:51;22.80;99.90
40589;DHT22;26297;49.450;6.640;2022-08-25T20:14:56;22.80;99.90
40589;DHT22;26297;49.450;6.640;2022-08-25T20:18:03;22.80;99.90
40589;DHT22;26297;49.450;6.640;2022-08-25T20:21:07;22.80;99.90
40589;DHT22;26297;49.450;6.640;2022-08-25T20:24:11;22.80;99.90
40589;DHT22;26297;49.450;6.640;2022-08-25T20:27:39;22.80;99.90
40589;DHT22;26297;49.450;6.640;2022-08-25T20:30:44;22.80;99.90
40589;DHT22;26297;49.450;6.640;2022-08-25T20:33:47;22.80;99.90
40589;DHT22;26297;49.450;6.640;2022-08-25T20:36:50;22.90;99.90
40589;DHT22;26297;49.450;6.640;2022-08-25T20:39:54;22.80;99.90
40589;DHT22;26297;49.450;6.640;2022-08-25T20:43:02;22.80;99.90
40589;DHT22;26297;49.450;6.640;2022-08-25T20:46:07;23.70;99.90
40589;DHT22;26297;49.450;6.640;2022-08-25T20:49:11;22.80;99.90
40589;DHT22;26297;49.450;6.640;2022-08-25T20:52:16;22.80;99.90
40589;DHT22;26297;49.450;6.640;2022-08-25T20:55:20;22.80;99.90
40589;DHT22;26297;49.450;6.640;2022-08-25T20:58:24;22.80;99.90
40589;DHT22;26297;49.450;6.640;2022-08-25T21:01:28;22.80;99.90
40589;DHT22;26297;49.450;6.640;2022-08-25T21:04:41;22.80;99.90